Time;durP1;ratioP1;P1;durP2;ratioP2;P2;SDS_P1;SDS_P2;PMS_P1;PMS_P2;Temp;Humidity;BMP_temperature;BMP_pressure;BME280_temperature;BME280_humidity;BME280_pressure;Samples;Min_cycle;Max_cycle;Signal;HPM_P1;HPM_P2
2022/07/31 00:01:12;;;;;;;5.47;2.80;;;22.70;99.90;;;;;;5074058;28;20614;-72
2022/07/31 00:03:38;;;;;;;3.73;2.63;;;22.60;99.90;;;;;;5072462;28;20602;-72
2022/07/31 00:06:05;;;;;;;3.20;2.90;;;22.60;99.90;;;;;;5073616;28;20657;-72
2022/07/31 00:08:31;;;;;;;5.20;2.80;;;22.50;99.90;;;;;;5073768;28;20630;-72
2022/07/31 00:10:58;;;;;;;3.50;2.93;;;22.40;99.90;;;;;;5073839;28;20579;-72
2022/07/31 00:13:24;;;;;;;2.73;2.53;;;22.40;99.90;;;;;;5073443;28;20571;-72
2022/07/31 00:15:51;;;;;;;3.57;3.07;;;22.40;99.90;;;;;;5073740;28;20586;-72
2022/07/31 00:18:17;;;;;;;5.87;3.13;;;22.40;99.90;;;;;;5073272;28;20621;-72
2022/07/31 00:20:44;;;;;;;2.60;2.40;;;22.30;99.90;;;;;;5073926;28;20628;-72
2022/07/31 00:23:10;;;;;;;2.83;2.50;;;22.20;99.90;;;;;;5071968;28;20633;-72
2022/07/31 00:25:37;;;;;;;2.90;2.70;;;22.00;99.90;;;;;;5071727;28;21224;-72
2022/07/31 00:28:05;;;;;;;13.00;2.73;;;21.80;99.90;;;;;;5073430;28;20587;-72
2022/07/31 00:30:31;;;;;;;2.77;2.67;;;21.70;99.90;;;;;;5073410;28;20644;-72
2022/07/31 00:32:58;;;;;;;3.20;2.80;;;21.60;99.90;;;;;;5073612;28;20618;-72
2022/07/31 00:35:24;;;;;;;2.80;2.33;;;21.40;99.90;;;;;;5073333;28;20676;-72
2022/07/31 00:37:51;;;;;;;2.47;2.30;;;21.20;99.90;;;;;;5073330;28;20912;-72
2022/07/31 00:40:17;;;;;;;2.93;2.60;;;21.00;99.90;;;;;;5073410;28;20655;-72
2022/07/31 00:42:44;;;;;;;3.13;2.90;;;21.00;99.90;;;;;;5073072;28;20622;-72
2022/07/31 00:45:11;;;;;;;2.63;2.30;;;20.90;99.90;;;;;;5071938;28;20663;-72
2022/07/31 00:47:38;;;;;;;2.67;2.57;;;21.00;99.90;;;;;;5072937;28;20618;-72
2022/07/31 00:50:05;;;;;;;3.37;2.57;;;20.90;99.90;;;;;;5072915;28;20637;-72
2022/07/31 00:52:32;;;;;;;3.50;3.20;;;20.90;99.90;;;;;;5071552;28;20622;-72
2022/07/31 00:54:58;;;;;;;2.77;2.57;;;20.90;99.90;;;;;;5073247;28;20617;-72
2022/07/31 00:57:25;;;;;;;2.63;2.50;;;20.70;99.90;;;;;;5072978;28;20567;-72
2022/07/31 00:59:51;;;;;;;2.57;2.40;;;20.50;99.90;;;;;;5072836;28;21011;-72
2022/07/31 01:02:17;;;;;;;3.10;2.43;;;20.50;99.90;;;;;;5073121;28;20571;-72
2022/07/31 01:04:44;;;;;;;2.90;2.70;;;20.40;99.90;;;;;;5073012;28;20646;-72
2022/07/31 01:07:10;;;;;;;2.97;2.77;;;20.40;99.90;;;;;;5072752;28;20636;-72
2022/07/31 01:09:37;;;;;;;3.60;2.90;;;20.20;99.90;;;;;;5071684;28;20633;-72
2022/07/31 01:12:39;;;;;;;3.30;3.10;;;20.10;99.90;;;;;;5072748;28;21160;-72
2022/07/31 01:15:09;;;;;;;3.03;2.77;;;19.90;99.90;;;;;;5071612;28;20630;-72
2022/07/31 01:17:37;;;;;;;3.13;2.83;;;19.50;99.90;;;;;;5072698;28;20581;-72
2022/07/31 01:20:04;;;;;;;2.57;2.37;;;19.40;99.90;;;;;;5072938;28;21026;-71
2022/07/31 01:22:49;;;;;;;2.60;2.40;;;19.20;99.90;;;;;;5072572;28;20618;-72
2022/07/31 01:25:37;;;;;;;3.13;2.90;;;19.20;99.90;;;;;;5072695;28;20643;-72
2022/07/31 01:28:22;;;;;;;5.00;2.57;;;19.10;99.90;;;;;;5072476;28;21020;-72
2022/07/31 01:30:59;;;;;;;3.17;2.50;;;19.10;99.90;;;;;;5072454;28;21028;-71
2022/07/31 01:33:31;;;;;;;6.43;3.10;;;19.00;99.90;;;;;;5073084;28;20622;-71
2022/07/31 01:36:07;;;;;;;4.20;2.70;;;19.20;99.90;;;;;;5072579;28;20575;-71
2022/07/31 01:38:39;;;;;;;3.33;3.03;;;19.30;99.90;;;;;;5076400;28;20625;-71
2022/07/31 01:41:09;;;;;;;5.97;2.63;;;19.30;99.90;;;;;;5076179;28;21112;-71
2022/07/31 01:43:39;;;;;;;2.73;2.53;;;19.40;99.90;;;;;;5076029;28;20586;-71
2022/07/31 01:46:10;;;;;;;2.60;2.40;;;19.30;99.90;;;;;;5076047;28;20871;-71
2022/07/31 01:48:38;;;;;;;3.07;2.70;;;19.20;99.90;;;;;;5075893;28;20936;-71
2022/07/31 01:51:07;;;;;;;8.73;2.73;;;19.20;99.90;;;;;;5076300;28;20888;-71
2022/07/31 01:53:35;;;;;;;7.87;2.90;;;19.30;99.90;;;;;;5076151;28;20663;-72
2022/07/31 01:56:02;;;;;;;2.43;2.23;;;19.20;99.90;;;;;;5075932;28;20574;-72
2022/07/31 01:58:33;;;;;;;4.07;3.00;;;19.20;99.90;;;;;;5074518;28;20955;-71
2022/07/31 02:01:02;;;;;;;3.17;2.57;;;19.10;99.90;;;;;;5076229;28;20574;-72
2022/07/31 02:03:30;;;;;;;2.60;2.40;;;19.00;99.90;;;;;;5075931;28;20634;-71
2022/07/31 02:05:59;;;;;;;5.30;2.67;;;18.90;99.90;;;;;;5075645;28;20630;-72
2022/07/31 02:08:28;;;;;;;3.07;2.73;;;18.80;99.90;;;;;;5074490;28;20987;-72
2022/07/31 02:10:56;;;;;;;3.43;2.70;;;18.70;99.90;;;;;;5075594;28;20621;-72
2022/07/31 02:13:24;;;;;;;4.67;3.23;;;18.70;99.90;;;;;;5074427;28;21225;-71
2022/07/31 02:15:52;;;;;;;3.97;2.40;;;18.70;99.90;;;;;;5075842;28;20672;-72
2022/07/31 02:18:20;;;;;;;3.00;2.80;;;18.70;99.90;;;;;;5075554;28;20652;-72
2022/07/31 02:20:50;;;;;;;4.27;3.80;;;18.70;99.90;;;;;;5075867;28;20986;-72
2022/07/31 02:23:17;;;;;;;6.53;3.43;;;18.70;99.90;;;;;;5075732;28;20630;-72
2022/07/31 02:25:45;;;;;;;3.80;3.03;;;18.80;99.90;;;;;;5074016;28;20614;-72
2022/07/31 02:28:19;;;;;;;5.00;2.80;;;18.80;99.90;;;;;;5075542;28;20623;-72
2022/07/31 02:30:47;;;;;;;5.33;2.50;;;18.80;99.90;;;;;;5075606;28;20662;-72
2022/07/31 02:33:20;;;;;;;6.57;3.67;;;18.70;99.90;;;;;;5075501;28;20574;-72
2022/07/31 02:35:50;;;;;;;3.10;2.90;;;18.60;99.90;;;;;;5075582;28;20575;-72
2022/07/31 02:38:20;;;;;;;4.10;3.40;;;18.50;99.90;;;;;;5075252;28;20571;-72
2022/07/31 02:40:48;;;;;;;3.97;3.40;;;18.40;99.90;;;;;;5075429;28;20637;-72
2022/07/31 02:43:15;;;;;;;5.13;2.80;;;18.40;99.90;;;;;;5075497;28;20979;-72
2022/07/31 02:45:42;;;;;;;3.80;3.30;;;18.50;99.90;;;;;;5075296;28;20663;-72
2022/07/31 02:48:09;;;;;;;4.00;3.43;;;18.60;99.90;;;;;;5075118;28;21014;-72
2022/07/31 02:50:37;;;;;;;2.97;2.70;;;18.70;99.90;;;;;;5074864;28;20989;-72
2022/07/31 02:53:04;;;;;;;5.23;2.87;;;18.60;99.90;;;;;;5075211;28;20618;-72
2022/07/31 02:55:31;;;;;;;3.10;2.80;;;18.70;99.90;;;;;;5074031;28;21241;-71
2022/07/31 02:57:58;;;;;;;3.03;2.83;;;18.80;99.90;;;;;;5057456;28;20547;-71
2022/07/31 03:00:28;;;;;;;9.03;3.37;;;18.80;99.90;;;;;;5074923;28;20562;-71
2022/07/31 03:02:54;;;;;;;5.83;2.90;;;18.60;99.90;;;;;;5073632;28;20630;-71
2022/07/31 03:05:21;;;;;;;6.10;3.03;;;18.50;99.90;;;;;;5074598;28;20657;-72
2022/07/31 03:07:48;;;;;;;3.07;2.70;;;18.40;99.90;;;;;;5074852;28;20579;-71
2022/07/31 03:10:15;;;;;;;3.33;3.07;;;18.40;99.90;;;;;;5074614;28;21042;-72
2022/07/31 03:12:44;;;;;;;2.70;2.50;;;18.40;99.90;;;;;;5074946;28;20563;-71
2022/07/31 03:15:14;;;;;;;3.47;3.13;;;18.20;99.90;;;;;;5075121;28;20633;-71
2022/07/31 03:17:43;;;;;;;5.10;3.53;;;18.10;99.90;;;;;;5074902;28;20960;-71
2022/07/31 03:20:11;;;;;;;6.63;3.60;;;18.10;99.90;;;;;;5074305;28;21004;-72
2022/07/31 03:22:38;;;;;;;5.80;4.40;;;18.10;99.90;;;;;;5074180;28;20602;-71
2022/07/31 03:25:06;;;;;;;3.40;3.10;;;18.10;99.90;;;;;;5074634;28;20649;-71
2022/07/31 03:27:32;;;;;;;3.77;3.47;;;17.70;99.90;;;;;;5074598;28;20575;-72
2022/07/31 03:29:59;;;;;;;3.77;3.40;;;17.70;99.90;;;;;;5074159;28;20641;-72
2022/07/31 03:32:25;;;;;;;3.83;3.53;;;17.60;99.90;;;;;;5074503;28;20567;-72
2022/07/31 03:34:52;;;;;;;4.33;3.80;;;17.40;99.90;;;;;;5074185;28;20545;-71
2022/07/31 03:37:18;;;;;;;4.00;3.60;;;17.40;99.90;;;;;;5074109;28;20618;-72
2022/07/31 03:39:45;;;;;;;4.73;3.30;;;17.40;99.90;;;;;;5074285;28;20625;-71
2022/07/31 03:42:12;;;;;;;3.50;3.20;;;17.30;99.90;;;;;;5073149;28;20579;-71
2022/07/31 03:44:40;;;;;;;3.10;2.90;;;17.30;99.90;;;;;;5074066;28;20582;-72
2022/07/31 03:47:07;;;;;;;4.47;3.20;;;17.30;99.90;;;;;;5073229;28;20630;-72
2022/07/31 03:49:34;;;;;;;4.10;3.80;;;17.40;99.90;;;;;;5073839;28;20630;-73
2022/07/31 03:52:01;;;;;;;5.73;3.00;;;17.50;99.90;;;;;;5073836;28;20606;-73
2022/07/31 03:54:28;;;;;;;3.40;3.20;;;17.60;99.90;;;;;;5073670;28;20653;-73
2022/07/31 03:56:56;;;;;;;3.40;3.10;;;17.60;99.90;;;;;;5073732;28;20588;-72
2022/07/31 03:59:26;;;;;;;3.10;2.90;;;17.70;99.90;;;;;;5073519;28;20626;-72
2022/07/31 04:01:52;;;;;;;3.57;3.37;;;17.60;99.90;;;;;;5073815;28;20582;-72
2022/07/31 04:04:19;;;;;;;4.10;3.80;;;17.70;99.90;;;;;;5073791;28;20560;-72
2022/07/31 04:06:45;;;;;;;3.30;3.00;;;17.80;99.90;;;;;;5074014;28;20986;-73
2022/07/31 04:09:12;;;;;;;3.37;3.17;;;17.90;99.90;;;;;;5073451;28;20587;-73
2022/07/31 04:11:38;;;;;;;2.80;2.60;;;17.90;99.90;;;;;;5073694;28;21017;-72
2022/07/31 04:14:04;;;;;;;2.97;2.77;;;17.90;99.90;;;;;;5073305;28;20587;-73
2022/07/31 04:16:31;;;;;;;2.73;2.53;;;17.90;99.90;;;;;;5073290;28;20929;-73
2022/07/31 04:18:57;;;;;;;3.20;2.90;;;17.80;99.90;;;;;;5073789;28;20640;-72
2022/07/31 04:21:23;;;;;;;3.90;2.63;;;18.00;99.90;;;;;;5073226;28;20610;-72
2022/07/31 04:23:50;;;;;;;4.37;3.33;;;18.10;99.90;;;;;;5073479;28;20626;-72
2022/07/31 04:26:16;;;;;;;9.30;4.40;;;18.20;99.90;;;;;;5073484;28;20578;-73
2022/07/31 04:28:43;;;;;;;3.90;3.60;;;18.30;99.90;;;;;;5073359;28;20571;-73
2022/07/31 04:31:09;;;;;;;7.17;3.20;;;18.40;99.90;;;;;;5073082;28;20681;-73
2022/07/31 04:33:36;;;;;;;5.33;3.33;;;18.40;99.90;;;;;;5072927;28;21108;-73
2022/07/31 04:36:02;;;;;;;3.60;3.30;;;18.40;99.90;;;;;;5073407;28;20617;-73
2022/07/31 04:38:29;;;;;;;2.93;2.73;;;18.40;99.90;;;;;;5073176;28;20579;-73
2022/07/31 04:40:55;;;;;;;3.60;3.30;;;18.40;99.90;;;;;;5071564;28;20579;-73
2022/07/31 04:43:22;;;;;;;7.13;4.13;;;18.40;99.90;;;;;;5073046;28;20579;-73
2022/07/31 04:45:48;;;;;;;3.43;3.13;;;18.40;99.90;;;;;;5073108;28;20743;-72
2022/07/31 04:48:14;;;;;;;3.63;3.40;;;18.40;99.90;;;;;;5073010;28;20618;-73
2022/07/31 04:50:41;;;;;;;3.07;2.87;;;18.40;99.90;;;;;;5071541;28;21195;-73
2022/07/31 04:53:07;;;;;;;3.70;3.23;;;18.50;99.90;;;;;;5072734;28;20938;-72
2022/07/31 04:55:34;;;;;;;3.50;3.20;;;18.50;99.90;;;;;;5073241;28;20614;-73
2022/07/31 04:58:00;;;;;;;3.30;3.00;;;18.80;99.90;;;;;;5072646;28;20574;-71
2022/07/31 05:00:27;;;;;;;3.67;3.27;;;18.90;99.90;;;;;;5071260;28;20667;-71
2022/07/31 05:02:53;;;;;;;9.27;3.20;;;19.00;99.90;;;;;;5071617;28;20622;-71
2022/07/31 05:05:20;;;;;;;6.63;3.10;;;18.90;99.90;;;;;;5072601;28;21285;-71
2022/07/31 05:07:47;;;;;;;3.43;3.17;;;19.00;99.90;;;;;;5073160;28;20687;-72
2022/07/31 05:11:21;;;;;;;3.80;3.30;;;19.00;99.90;;;;;;5072760;28;20732;-71
2022/07/31 05:12:59;;;;;;;3.47;3.27;;;18.90;99.90;;;;;;5075586;28;21160;-71
2022/07/31 05:15:26;;;;;;;5.23;3.40;;;18.90;99.90;;;;;;5076628;28;20626;-72
2022/07/31 05:17:52;;;;;;;9.03;3.30;;;18.90;99.90;;;;;;5076709;28;20582;-72
2022/07/31 05:20:19;;;;;;;2.93;2.70;;;18.90;99.90;;;;;;5076798;28;20975;-71
2022/07/31 05:22:45;;;;;;;2.90;2.60;;;19.00;99.90;;;;;;5076577;28;21190;-72
2022/07/31 05:25:11;;;;;;;3.50;3.20;;;19.00;99.90;;;;;;5076401;28;20641;-72
2022/07/31 05:27:38;;;;;;;15.57;3.63;;;19.00;99.90;;;;;;5076314;28;20648;-72
2022/07/31 05:30:07;;;;;;;3.10;2.90;;;19.10;99.90;;;;;;5076621;28;20680;-73
2022/07/31 05:32:33;;;;;;;3.97;3.10;;;19.20;99.90;;;;;;5075165;28;20626;-72
2022/07/31 05:34:59;;;;;;;3.70;3.40;;;19.40;99.90;;;;;;5076335;28;21117;-72
2022/07/31 05:37:26;;;;;;;3.40;3.20;;;19.50;99.90;;;;;;5075044;28;20629;-72
2022/07/31 05:39:52;;;;;;;3.20;2.90;;;19.60;99.90;;;;;;5074697;28;20622;-72
2022/07/31 05:42:19;;;;;;;3.10;2.90;;;19.70;99.90;;;;;;5074867;28;20940;-73
2022/07/31 05:44:45;;;;;;;3.23;2.80;;;19.80;99.90;;;;;;5076285;28;20579;-72
2022/07/31 05:47:12;;;;;;;3.10;2.90;;;19.80;99.90;;;;;;5076200;28;21000;-72
2022/07/31 05:49:38;;;;;;;6.37;3.70;;;19.80;99.90;;;;;;5075782;28;20650;-72
2022/07/31 05:52:05;;;;;;;4.13;2.80;;;19.80;99.90;;;;;;5075872;28;20903;-73
2022/07/31 05:54:31;;;;;;;4.90;2.67;;;19.70;99.90;;;;;;5076291;28;20639;-72
2022/07/31 05:56:58;;;;;;;3.43;3.23;;;19.80;99.90;;;;;;5075789;28;21121;-72
2022/07/31 05:59:24;;;;;;;3.03;2.83;;;19.80;99.90;;;;;;5075765;28;20618;-72
2022/07/31 06:01:51;;;;;;;2.83;2.63;;;20.00;99.90;;;;;;5075615;28;21105;-72
2022/07/31 06:04:17;;;;;;;3.30;3.10;;;20.10;99.90;;;;;;5075222;28;21173;-72
2022/07/31 06:06:43;;;;;;;3.63;3.33;;;20.20;99.90;;;;;;5074371;28;21147;-72
2022/07/31 06:09:10;;;;;;;4.50;4.10;;;20.20;99.90;;;;;;5074310;28;21024;-72
2022/07/31 06:11:37;;;;;;;3.50;3.30;;;20.30;99.90;;;;;;5072815;28;20660;-72
2022/07/31 06:14:03;;;;;;;4.53;3.13;;;20.40;99.90;;;;;;5074593;28;20576;-72
2022/07/31 06:16:30;;;;;;;3.70;3.40;;;20.20;99.90;;;;;;5074257;28;20927;-72
2022/07/31 06:18:56;;;;;;;3.33;3.03;;;20.10;99.90;;;;;;5074550;28;20615;-72
2022/07/31 06:21:22;;;;;;;3.60;3.30;;;19.90;99.90;;;;;;5073117;28;20614;-72
2022/07/31 06:23:49;;;;;;;3.80;3.60;;;20.10;99.90;;;;;;5074390;28;20668;-72
2022/07/31 06:26:16;;;;;;;3.10;2.90;;;20.10;99.90;;;;;;5074049;28;21148;-71
2022/07/31 06:28:42;;;;;;;3.87;3.57;;;20.20;99.90;;;;;;5073952;28;20686;-71
2022/07/31 06:31:18;;;;;;;4.63;3.47;;;20.10;99.90;;;;;;5074210;28;20630;-71
2022/07/31 06:33:45;;;;;;;3.43;3.23;;;20.20;99.90;;;;;;5073985;28;20570;-71
2022/07/31 06:36:12;;;;;;;6.03;3.30;;;20.30;99.90;;;;;;5073922;28;21193;-71
2022/07/31 06:38:38;;;;;;;3.97;3.30;;;20.30;99.90;;;;;;5074232;28;21158;-71
2022/07/31 06:41:05;;;;;;;3.13;3.00;;;20.30;99.90;;;;;;5074122;28;21051;-71
2022/07/31 06:43:31;;;;;;;4.03;3.63;;;20.50;99.90;;;;;;5074213;28;20622;-71
2022/07/31 06:45:57;;;;;;;4.40;3.47;;;20.80;99.90;;;;;;5074095;28;20583;-71
2022/07/31 06:48:24;;;;;;;3.90;3.50;;;20.80;99.90;;;;;;5074217;28;20575;-71
2022/07/31 06:50:50;;;;;;;3.47;3.27;;;20.70;99.90;;;;;;5073822;28;20634;-71
2022/07/31 06:53:17;;;;;;;3.60;3.33;;;20.80;99.90;;;;;;5072304;28;21109;-71
2022/07/31 06:55:43;;;;;;;3.70;3.10;;;20.80;99.90;;;;;;5073886;28;20570;-71
2022/07/31 06:58:09;;;;;;;5.63;3.50;;;21.10;99.90;;;;;;5073649;28;20591;-71
2022/07/31 07:00:36;;;;;;;3.30;3.00;;;21.00;99.90;;;;;;5073832;28;20573;-71
2022/07/31 07:03:02;;;;;;;6.60;3.40;;;21.20;99.90;;;;;;5073852;28;20570;-71
2022/07/31 07:05:28;;;;;;;4.15;3.25;;;21.40;99.90;;;;;;5034444;28;1126418;-71
2022/07/31 07:07:55;;;;;;;3.37;3.13;;;21.70;99.90;;;;;;5074375;28;20200;-71
2022/07/31 07:10:21;;;;;;;6.67;3.70;;;22.10;99.90;;;;;;5074742;28;20642;-71
2022/07/31 07:12:47;;;;;;;5.80;3.50;;;22.10;99.90;;;;;;5074298;28;20614;-71
2022/07/31 07:15:13;;;;;;;4.30;3.90;;;21.90;99.90;;;;;;5074459;28;20578;-71
2022/07/31 07:17:40;;;;;;;3.40;3.10;;;22.20;99.90;;;;;;5074570;28;20602;-71
2022/07/31 07:20:07;;;;;;;8.23;3.20;;;22.50;99.90;;;;;;5074901;28;20629;-70
2022/07/31 07:22:33;;;;;;;3.53;3.23;;;22.40;99.90;;;;;;5074371;28;20610;-71
2022/07/31 07:25:00;;;;;;;4.13;3.37;;;22.70;99.90;;;;;;5074742;28;20634;-71
2022/07/31 07:27:26;;;;;;;3.43;3.13;;;22.90;99.90;;;;;;5074778;28;20671;-71
2022/07/31 07:29:52;;;;;;;6.30;2.93;;;23.10;99.90;;;;;;5074507;28;20979;-71
2022/07/31 07:32:18;;;;;;;8.20;2.67;;;23.10;99.90;;;;;;5074071;28;20709;-71
2022/07/31 07:34:45;;;;;;;6.17;3.77;;;23.20;99.90;;;;;;5073781;28;20657;-71
2022/07/31 07:37:11;;;;;;;3.03;2.83;;;23.10;99.90;;;;;;5074451;28;20555;-71
2022/07/31 07:39:38;;;;;;;3.30;3.10;;;23.10;99.90;;;;;;5073741;28;20585;-71
2022/07/31 07:42:04;;;;;;;4.67;3.37;;;23.30;99.90;;;;;;5074033;28;20570;-71
2022/07/31 07:44:30;;;;;;;3.37;2.90;;;23.60;99.90;;;;;;5074163;28;20618;-71
2022/07/31 07:46:56;;;;;;;4.87;3.53;;;23.80;99.90;;;;;;5074185;28;20593;-71
2022/07/31 07:49:23;;;;;;;4.57;3.70;;;24.10;99.90;;;;;;5072833;28;20988;-71
2022/07/31 07:51:49;;;;;;;3.23;3.03;;;24.40;99.90;;;;;;5072392;28;20662;-71
2022/07/31 07:54:15;;;;;;;5.87;3.40;;;24.70;99.90;;;;;;5073595;28;21132;-71
2022/07/31 07:56:44;;;;;;;3.50;3.30;;;24.90;99.90;;;;;;5074045;28;20578;-71
2022/07/31 07:59:11;;;;;;;3.40;3.10;;;24.90;99.90;;;;;;5073650;28;21149;-71
2022/07/31 08:01:37;;;;;;;3.40;3.13;;;25.40;99.90;;;;;;5073544;28;21106;-71
2022/07/31 08:04:04;;;;;;;6.33;3.20;;;24.90;99.90;;;;;;5073556;28;20953;-71
2022/07/31 08:06:31;;;;;;;7.90;4.00;;;24.40;99.90;;;;;;5073540;28;20594;-71
2022/07/31 08:08:57;;;;;;;3.37;3.07;;;24.60;99.90;;;;;;5073318;28;20586;-71
2022/07/31 08:11:24;;;;;;;5.47;3.40;;;24.60;99.90;;;;;;5073388;28;20673;-71
2022/07/31 08:13:51;;;;;;;3.57;3.17;;;24.50;99.90;;;;;;5074053;28;20965;-71
2022/07/31 08:16:20;;;;;;;3.70;3.30;;;24.60;99.90;;;;;;5073431;28;20618;-71
2022/07/31 08:18:49;;;;;;;6.37;3.20;;;24.40;99.90;;;;;;5073843;28;20574;-71
2022/07/31 08:21:15;;;;;;;4.10;3.20;;;24.50;99.90;;;;;;5073393;28;21180;-72
2022/07/31 08:23:41;;;;;;;2.57;2.43;;;24.90;99.90;;;;;;5072924;28;20650;-72
2022/07/31 08:26:08;;;;;;;3.73;3.43;;;25.50;99.90;;;;;;5073282;28;20996;-71
2022/07/31 08:28:35;;;;;;;3.10;2.90;;;25.40;99.90;;;;;;5072889;28;21117;-71
2022/07/31 08:31:02;;;;;;;3.10;2.90;;;25.10;99.90;;;;;;5072893;28;20650;-72
2022/07/31 08:33:28;;;;;;;3.03;2.80;;;25.10;99.90;;;;;;5073240;28;20622;-71
2022/07/31 08:35:55;;;;;;;4.13;3.10;;;25.30;99.90;;;;;;5073375;28;20963;-71
2022/07/31 08:38:21;;;;;;;4.20;3.33;;;25.50;99.90;;;;;;5073339;28;20575;-71
2022/07/31 08:40:48;;;;;;;4.87;3.33;;;25.70;99.90;;;;;;5073227;28;20597;-71
2022/07/31 08:43:14;;;;;;;3.27;3.07;;;25.70;99.90;;;;;;5073334;28;20974;-71
2022/07/31 08:45:41;;;;;;;3.93;3.67;;;25.80;99.90;;;;;;5072711;28;20601;-71
2022/07/31 08:48:08;;;;;;;3.30;3.00;;;25.70;99.90;;;;;;5073259;28;20617;-71
2022/07/31 08:50:38;;;;;;;3.47;3.27;;;25.90;99.90;;;;;;5071568;28;20661;-71
2022/07/31 08:53:05;;;;;;;3.63;3.20;;;25.60;99.90;;;;;;5073129;28;20578;-71
2022/07/31 08:55:32;;;;;;;6.57;3.30;;;25.60;99.90;;;;;;5073322;28;20583;-71
2022/07/31 08:57:58;;;;;;;3.20;3.00;;;25.70;99.90;;;;;;5073288;28;20621;-71
2022/07/31 09:00:27;;;;;;;4.70;2.50;;;25.80;99.90;;;;;;5072755;28;21201;-71
2022/07/31 09:02:54;;;;;;;2.93;2.73;;;26.20;99.90;;;;;;5073033;28;20691;-71
2022/07/31 09:05:21;;;;;;;3.00;2.80;;;26.20;99.90;;;;;;5072643;28;20657;-71
2022/07/31 09:07:48;;;;;;;2.93;2.73;;;26.10;99.90;;;;;;5073213;28;20616;-71
2022/07/31 09:10:24;;;;;;;3.90;3.00;;;26.00;99.90;;;;;;5073103;28;20987;-71
2022/07/31 09:12:51;;;;;;;3.40;2.83;;;26.30;99.90;;;;;;5072949;28;20648;-69
2022/07/31 09:15:26;;;;;;;3.80;3.40;;;26.20;99.90;;;;;;5072685;28;20583;-69
2022/07/31 09:17:53;;;;;;;2.83;2.47;;;26.30;99.90;;;;;;5072717;28;20618;-70
2022/07/31 09:20:22;;;;;;;2.93;2.77;;;26.30;99.90;;;;;;5072955;28;20634;-70
2022/07/31 09:23:06;;;;;;;3.67;2.93;;;26.40;99.90;;;;;;5072907;28;20975;-70
2022/07/31 09:25:32;;;;;;;2.60;2.40;;;26.90;99.90;;;;;;5072417;28;21216;-70
2022/07/31 09:28:04;;;;;;;4.67;2.83;;;27.40;99.90;;;;;;5072816;28;20636;-70
2022/07/31 09:30:31;;;;;;;5.90;2.63;;;27.70;99.90;;;;;;5072707;28;21255;-70
2022/07/31 09:33:17;;;;;;;2.13;2.00;;;27.70;99.90;;;;;;5072447;28;21015;-70
2022/07/31 09:35:53;;;;;;;2.60;2.50;;;28.00;99.90;;;;;;5072672;28;20574;-70
2022/07/31 09:38:22;;;;;;;3.17;2.60;;;28.00;99.90;;;;;;5072698;28;20583;-71
2022/07/31 09:40:48;;;;;;;3.43;2.80;;;28.40;99.90;;;;;;5073180;28;21184;-71
2022/07/31 09:43:23;;;;;;;3.07;2.87;;;28.00;99.90;;;;;;5072853;28;20663;-71
2022/07/31 09:46:03;;;;;;;2.47;2.37;;;27.80;99.90;;;;;;5072680;28;20574;-70
2022/07/31 09:48:30;;;;;;;2.43;2.33;;;27.90;99.90;;;;;;5072304;28;20602;-71
2022/07/31 09:51:02;;;;;;;2.57;2.30;;;28.40;99.90;;;;;;5072699;28;20654;-71
2022/07/31 09:53:46;;;;;;;2.50;2.30;;;28.80;99.90;;;;;;5072687;28;20567;-71
2022/07/31 09:56:14;;;;;;;2.23;2.13;;;28.80;99.90;;;;;;5072242;28;20591;-71
2022/07/31 09:58:41;;;;;;;2.60;2.10;;;28.70;99.90;;;;;;5074660;28;20618;-71
2022/07/31 10:01:09;;;;;;;2.70;2.23;;;28.80;99.90;;;;;;5075920;28;21124;-71
2022/07/31 10:03:37;;;;;;;2.37;2.23;;;28.60;99.90;;;;;;5076032;28;20632;-71
2022/07/31 10:06:05;;;;;;;2.40;2.20;;;28.40;99.90;;;;;;5075640;28;20988;-71
2022/07/31 10:08:36;;;;;;;2.70;2.60;;;28.80;99.90;;;;;;5076309;28;20586;-70
2022/07/31 10:11:05;;;;;;;2.47;2.23;;;28.70;99.90;;;;;;5075981;28;20661;-71
2022/07/31 10:13:36;;;;;;;4.00;2.40;;;28.70;99.90;;;;;;5074520;28;21156;-71
2022/07/31 10:16:04;;;;;;;2.60;2.40;;;28.70;99.90;;;;;;5075519;28;20578;-71
2022/07/31 10:18:36;;;;;;;2.20;2.10;;;29.10;99.90;;;;;;5075947;28;20712;-71
2022/07/31 10:21:05;;;;;;;3.30;2.47;;;29.00;99.90;;;;;;5075830;28;20578;-71
2022/07/31 10:23:39;;;;;;;6.60;2.90;;;29.10;99.90;;;;;;5075737;28;20995;-71
2022/07/31 10:26:06;;;;;;;2.53;2.33;;;29.50;99.90;;;;;;5075697;28;20610;-72
2022/07/31 10:28:36;;;;;;;3.87;2.90;;;30.00;99.90;;;;;;5075534;28;20946;-71
2022/07/31 10:31:03;;;;;;;2.67;2.50;;;29.70;99.90;;;;;;5075713;28;20665;-71
2022/07/31 10:33:29;;;;;;;2.87;2.57;;;29.80;99.90;;;;;;5075833;28;20629;-71
2022/07/31 10:36:10;;;;;;;2.57;2.37;;;29.00;99.90;;;;;;5075991;28;20921;-71
2022/07/31 10:38:44;;;;;;;2.73;2.63;;;29.00;99.90;;;;;;5075321;28;21116;-71
2022/07/31 10:41:24;;;;;;;2.73;2.53;;;29.30;99.90;;;;;;5075288;28;20565;-71
2022/07/31 10:43:55;;;;;;;2.73;2.50;;;29.80;99.90;;;;;;5075721;28;20742;-71
2022/07/31 10:46:28;;;;;;;2.70;2.60;;;30.20;99.90;;;;;;5075190;28;21065;-69
2022/07/31 10:48:56;;;;;;;3.37;2.77;;;30.40;99.90;;;;;;5075251;28;20695;-69
2022/07/31 10:51:23;;;;;;;4.43;2.70;;;30.30;99.90;;;;;;5075200;28;21062;-70
2022/07/31 10:53:54;;;;;;;2.40;2.30;;;30.20;99.90;;;;;;5075394;28;20977;-70
2022/07/31 10:56:21;;;;;;;3.43;2.47;;;30.30;99.90;;;;;;5075410;28;20602;-71
2022/07/31 10:58:49;;;;;;;3.40;2.60;;;30.30;99.90;;;;;;5075382;28;20976;-71
2022/07/31 11:01:15;;;;;;;4.47;2.60;;;29.70;99.90;;;;;;5074947;28;20694;-70
2022/07/31 11:03:48;;;;;;;2.97;2.77;;;29.60;99.90;;;;;;5075286;28;20567;-71
2022/07/31 11:06:16;;;;;;;3.60;2.90;;;29.80;99.90;;;;;;5074733;28;20650;-70
2022/07/31 11:08:44;;;;;;;2.83;2.60;;;29.70;99.90;;;;;;5074500;28;20578;-70
2022/07/31 11:11:12;;;;;;;3.93;2.43;;;30.10;99.90;;;;;;5074520;28;20670;-71
2022/07/31 11:13:50;;;;;;;3.07;2.87;;;30.20;99.90;;;;;;5074871;28;21116;-71
2022/07/31 11:16:18;;;;;;;3.13;2.53;;;30.00;99.90;;;;;;5073282;28;20617;-71
2022/07/31 11:18:59;;;;;;;2.70;2.50;;;30.20;99.90;;;;;;5074868;28;20571;-71
2022/07/31 11:21:40;;;;;;;4.17;2.90;;;30.20;99.90;;;;;;5075024;28;20645;-71
2022/07/31 11:24:19;;;;;;;2.63;2.53;;;30.40;99.90;;;;;;5073920;28;21032;-71
2022/07/31 11:26:49;;;;;;;2.90;2.57;;;30.80;99.90;;;;;;5074299;28;21203;-71
2022/07/31 11:29:48;;;;;;;10.03;3.07;;;30.60;99.90;;;;;;5074474;28;20622;-71
2022/07/31 11:32:16;;;;;;;4.00;2.40;;;30.70;99.90;;;;;;5069453;28;20998;-71
2022/07/31 11:34:52;;;;;;;3.37;2.80;;;30.40;99.90;;;;;;5074678;28;20638;-71
2022/07/31 11:37:22;;;;;;;3.40;2.87;;;31.20;99.90;;;;;;5074534;28;20682;-71
2022/07/31 11:39:50;;;;;;;3.57;2.87;;;31.10;99.90;;;;;;5074237;28;20679;-71
2022/07/31 11:42:17;;;;;;;7.10;2.50;;;32.20;99.90;;;;;;5073991;28;21149;-72
2022/07/31 11:44:43;;;;;;;6.83;3.60;;;31.90;99.90;;;;;;5073863;28;21208;-71
2022/07/31 11:47:10;;;;;;;8.40;3.43;;;31.90;99.90;;;;;;5072750;28;20626;-71
2022/07/31 11:49:37;;;;;;;2.87;2.67;;;31.90;99.90;;;;;;5074300;28;20611;-71
2022/07/31 11:52:10;;;;;;;3.40;2.87;;;31.80;99.90;;;;;;5072848;28;21220;-71
2022/07/31 11:54:38;;;;;;;2.90;2.60;;;32.70;99.90;;;;;;5072472;28;21075;-71
2022/07/31 11:57:05;;;;;;;3.83;2.80;;;32.20;99.90;;;;;;5074249;28;20630;-71
2022/07/31 11:59:36;;;;;;;2.67;2.47;;;32.80;99.90;;;;;;5074099;28;20630;-71
2022/07/31 12:02:08;;;;;;;2.80;2.40;;;32.60;99.90;;;;;;5074254;28;20593;-71
2022/07/31 12:04:35;;;;;;;3.77;2.77;;;32.30;99.90;;;;;;5073547;28;21226;-71
2022/07/31 12:07:03;;;;;;;2.87;2.77;;;32.20;99.90;;;;;;5072574;28;20626;-72
2022/07/31 12:09:31;;;;;;;3.70;2.80;;;32.30;99.90;;;;;;5074009;28;20644;-70
2022/07/31 12:11:58;;;;;;;3.40;2.17;;;32.20;99.90;;;;;;5073337;28;20662;-71
2022/07/31 12:14:36;;;;;;;4.00;2.30;;;31.90;99.90;;;;;;5073762;28;20574;-70
2022/07/31 12:17:05;;;;;;;4.03;2.83;;;31.60;99.90;;;;;;5074090;28;21149;-71
2022/07/31 12:19:34;;;;;;;5.97;2.60;;;31.60;99.90;;;;;;5073906;28;20657;-71
2022/07/31 12:22:14;;;;;;;3.10;2.70;;;32.10;99.90;;;;;;5071875;28;20618;-72
2022/07/31 12:24:42;;;;;;;3.30;2.30;;;33.20;99.90;;;;;;5072464;28;20696;-71
2022/07/31 12:27:13;;;;;;;3.00;2.80;;;32.80;99.90;;;;;;5073068;28;20622;-71
2022/07/31 12:29:40;;;;;;;3.57;2.77;;;32.50;99.90;;;;;;5073387;28;20626;-71
2022/07/31 12:32:07;;;;;;;4.93;2.50;;;33.40;99.90;;;;;;5072966;28;20654;-71
2022/07/31 12:34:37;;;;;;;4.20;2.40;;;33.90;99.90;;;;;;5073825;28;20593;-71
2022/07/31 12:37:05;;;;;;;5.23;3.40;;;34.30;99.90;;;;;;5073766;28;20615;-72
2022/07/31 12:39:38;;;;;;;2.50;2.30;;;34.50;99.90;;;;;;5073515;28;20622;-71
2022/07/31 12:42:05;;;;;;;2.57;2.47;;;34.20;99.90;;;;;;5073085;28;21229;-71
2022/07/31 12:44:32;;;;;;;3.77;2.90;;;33.80;99.90;;;;;;5073706;28;20632;-71
2022/07/31 12:46:58;;;;;;;4.53;2.30;;;34.30;99.90;;;;;;5071768;28;21042;-71
2022/07/31 12:49:25;;;;;;;2.80;2.33;;;33.60;99.90;;;;;;5073476;28;20671;-71
2022/07/31 12:51:51;;;;;;;2.80;2.60;;;34.60;99.90;;;;;;5073665;28;20664;-71